createdAt,value
2018-12-12T00:00:05.169Z,312.93
2018-12-12T00:01:05.176Z,312.20
2018-12-12T00:02:05.150Z,312.03
2018-12-12T00:03:05.124Z,311.93
2018-12-12T00:04:05.118Z,312.15
2018-12-12T00:05:05.152Z,311.72
2018-12-12T00:06:05.134Z,311.66
2018-12-12T00:07:05.103Z,312.45
2018-12-12T00:08:05.087Z,312.24
2018-12-12T00:09:05.048Z,312.23
2018-12-12T00:10:05.043Z,312.12
2018-12-12T00:11:05.069Z,312.13
2018-12-12T00:12:05.033Z,312.24
2018-12-12T00:13:05.004Z,312.11
2018-12-12T00:14:05.015Z,311.84
2018-12-12T00:15:04.993Z,312.06
2018-12-12T00:16:05.009Z,311.74
2018-12-12T00:17:05.022Z,312.05
2018-12-12T00:18:04.972Z,312.09
2018-12-12T00:19:04.977Z,312.13
2018-12-12T00:20:04.949Z,312.08
2018-12-12T00:21:04.924Z,311.73
2018-12-12T00:22:04.933Z,311.48
2018-12-12T00:23:04.919Z,311.48
2018-12-12T00:24:04.896Z,311.95
2018-12-12T00:25:04.925Z,311.60
2018-12-12T00:26:04.873Z,311.96
2018-12-12T00:27:04.886Z,311.81
2018-12-12T00:28:04.946Z,312.59
2018-12-12T00:29:04.859Z,311.83
2018-12-12T00:30:04.843Z,311.95
2018-12-12T00:31:04.842Z,311.68
2018-12-12T00:32:04.850Z,311.82
2018-12-12T00:33:04.955Z,311.90
2018-12-12T00:34:04.797Z,312.49
2018-12-12T00:35:04.790Z,311.79
2018-12-12T00:36:04.775Z,312.31
2018-12-12T00:37:04.784Z,311.65
2018-12-12T00:38:04.748Z,312.64
2018-12-12T00:39:04.735Z,312.35
2018-12-12T00:40:04.739Z,311.78
2018-12-12T00:41:04.714Z,312.25
2018-12-12T00:42:04.746Z,311.75
2018-12-12T00:43:04.688Z,311.77
2018-12-12T00:44:04.701Z,311.93
2018-12-12T00:45:04.664Z,312.37
2018-12-12T00:46:04.661Z,312.26
2018-12-12T00:47:04.656Z,311.45
2018-12-12T00:48:04.659Z,311.64
2018-12-12T00:49:04.628Z,311.69
2018-12-12T00:50:04.613Z,311.84
2018-12-12T00:51:04.607Z,312.42
2018-12-12T00:52:04.638Z,311.54
2018-12-12T00:53:04.595Z,311.52
2018-12-12T00:54:04.564Z,311.62
2018-12-12T00:55:04.549Z,312.40
2018-12-12T00:56:04.558Z,311.22
2018-12-12T00:57:04.541Z,311.45
2018-12-12T00:58:04.553Z,312.17
2018-12-12T00:59:04.527Z,311.87
2018-12-12T01:00:04.525Z,311.93
2018-12-12T01:01:04.496Z,312.18
2018-12-12T01:02:04.516Z,312.51
2018-12-12T01:03:04.475Z,312.56
2018-12-12T01:04:04.476Z,312.07
2018-12-12T01:05:04.833Z,311.66
2018-12-12T01:06:04.429Z,311.98
2018-12-12T01:07:04.425Z,312.11
2018-12-12T01:08:04.409Z,311.79
2018-12-12T01:09:04.414Z,311.70
2018-12-12T01:10:04.404Z,311.80
2018-12-12T01:11:04.459Z,312.07
2018-12-12T01:12:04.372Z,312.26
2018-12-12T01:13:04.363Z,311.90
2018-12-12T01:14:04.349Z,311.84
2018-12-12T01:15:04.580Z,311.78
2018-12-12T01:16:04.337Z,311.93
2018-12-12T01:17:04.346Z,311.82
2018-12-12T01:18:04.301Z,311.95
2018-12-12T01:19:04.309Z,311.99
2018-12-12T01:20:04.286Z,312.00
2018-12-12T01:21:04.303Z,311.67
2018-12-12T01:22:04.325Z,311.56
2018-12-12T01:23:04.272Z,312.25
2018-12-12T01:24:04.242Z,312.12
2018-12-12T01:25:04.246Z,311.59
2018-12-12T01:26:04.219Z,311.66
2018-12-12T01:27:04.228Z,311.83
2018-12-12T01:28:04.202Z,311.85
2018-12-12T01:29:04.223Z,312.35
2018-12-12T01:30:04.182Z,312.18
2018-12-12T01:31:04.162Z,311.59
2018-12-12T01:32:04.192Z,312.08
2018-12-12T01:33:04.172Z,312.08
2018-12-12T01:34:04.159Z,312.01
2018-12-12T01:35:04.122Z,312.31
2018-12-12T01:36:04.124Z,312.31
2018-12-12T01:37:04.094Z,312.37
2018-12-12T01:38:04.125Z,312.13
2018-12-12T01:39:04.106Z,312.25
2018-12-12T01:40:04.083Z,312.05
2018-12-12T01:41:04.059Z,312.02
2018-12-12T01:42:04.051Z,312.20
2018-12-12T01:43:04.039Z,312.01
2018-12-12T01:44:04.044Z,312.33
2018-12-12T01:45:04.045Z,312.64
2018-12-12T01:46:04.017Z,311.94
2018-12-12T01:47:03.995Z,312.42
2018-12-12T01:48:04.002Z,312.25
2018-12-12T01:49:04.020Z,312.27
2018-12-12T01:50:03.982Z,312.27
2018-12-12T01:51:03.983Z,312.38
2018-12-12T01:52:03.939Z,312.24
2018-12-12T01:53:03.927Z,312.40
2018-12-12T01:54:03.933Z,312.41
2018-12-12T01:55:03.927Z,312.20
2018-12-12T01:56:03.922Z,311.91
2018-12-12T01:57:03.897Z,312.09
2018-12-12T01:58:03.873Z,312.04
2018-12-12T01:59:03.862Z,312.35
2018-12-12T02:00:03.864Z,312.22
2018-12-12T02:01:03.914Z,312.18
2018-12-12T02:02:03.854Z,312.60
2018-12-12T02:03:03.829Z,312.25
2018-12-12T02:04:03.820Z,312.16
2018-12-12T02:05:03.801Z,311.95
2018-12-12T02:06:03.791Z,312.09
2018-12-12T02:07:04.202Z,312.57
2018-12-12T02:08:03.767Z,312.61
2018-12-12T02:09:03.746Z,312.41
2018-12-12T02:10:03.733Z,312.68
2018-12-12T02:11:03.733Z,312.55
2018-12-12T02:12:03.713Z,312.37
2018-12-12T02:13:03.754Z,312.01
2018-12-12T02:14:03.721Z,312.58
2018-12-12T02:15:03.703Z,311.85
2018-12-12T02:16:03.682Z,312.12
2018-12-12T02:17:03.661Z,312.13
2018-12-12T02:18:03.661Z,312.31
2018-12-12T02:19:03.678Z,312.48
2018-12-12T02:20:03.645Z,312.42
2018-12-12T02:21:03.631Z,312.11
2018-12-12T02:22:03.633Z,312.41
2018-12-12T02:23:03.628Z,312.62
2018-12-12T02:24:03.588Z,312.30
2018-12-12T02:25:03.607Z,312.31
2018-12-12T02:26:03.602Z,312.37
2018-12-12T02:27:04.067Z,312.50
2018-12-12T02:28:03.561Z,312.50
2018-12-12T02:29:03.602Z,312.69
2018-12-12T02:30:03.532Z,312.27
2018-12-12T02:31:03.533Z,312.54
2018-12-12T02:32:03.525Z,312.34
2018-12-12T02:33:03.519Z,312.04
2018-12-12T02:34:03.484Z,311.91
2018-12-12T02:35:03.484Z,312.06
2018-12-12T02:36:03.463Z,312.25
2018-12-12T02:37:03.477Z,312.26
2018-12-12T02:38:03.448Z,312.37
2018-12-12T02:39:03.437Z,312.63
2018-12-12T02:40:03.436Z,312.51
2018-12-12T02:41:03.440Z,311.77
2018-12-12T02:42:03.389Z,312.69
2018-12-12T02:43:03.384Z,312.28
2018-12-12T02:44:03.373Z,312.22
2018-12-12T02:45:03.392Z,312.48
2018-12-12T02:46:03.399Z,312.28
2018-12-12T02:47:03.355Z,312.54
2018-12-12T02:48:03.349Z,312.28
2018-12-12T02:49:03.311Z,312.50
2018-12-12T02:50:03.304Z,312.42
2018-12-12T02:51:03.304Z,312.29
2018-12-12T02:52:03.305Z,312.75
2018-12-12T02:53:03.275Z,312.76
2018-12-12T02:54:03.260Z,312.90
2018-12-12T02:55:03.251Z,312.20
2018-12-12T02:56:03.259Z,312.86
2018-12-12T02:57:03.231Z,312.92
2018-12-12T02:58:03.225Z,312.64
2018-12-12T02:59:03.221Z,313.07
2018-12-12T03:00:03.207Z,312.54
2018-12-12T03:01:03.208Z,312.66
2018-12-12T03:02:03.194Z,312.73
2018-12-12T03:03:03.168Z,312.47
2018-12-12T03:04:03.158Z,312.73
2018-12-12T03:05:03.154Z,312.90
2018-12-12T03:06:03.168Z,312.37
2018-12-12T03:07:03.122Z,312.80
2018-12-12T03:08:03.106Z,312.48
2018-12-12T03:09:03.103Z,312.53
2018-12-12T03:10:03.098Z,312.35
2018-12-12T03:11:03.085Z,312.70
2018-12-12T03:12:03.099Z,312.47
2018-12-12T03:13:03.047Z,312.65
2018-12-12T03:14:03.048Z,312.78
2018-12-12T03:15:03.034Z,312.52
2018-12-12T03:16:03.019Z,312.70
2018-12-12T03:17:03.028Z,313.22
2018-12-12T03:18:03.004Z,312.71
2018-12-12T03:19:03.004Z,312.37
2018-12-12T03:20:02.985Z,312.46
2018-12-12T03:21:02.963Z,312.76
2018-12-12T03:22:02.970Z,312.23
2018-12-12T03:23:02.957Z,312.67
2018-12-12T03:24:02.952Z,312.76
2018-12-12T03:25:02.940Z,312.86
2018-12-12T03:26:02.913Z,312.91
2018-12-12T03:27:02.926Z,312.96
2018-12-12T03:28:02.890Z,312.57
2018-12-12T03:29:02.886Z,312.68
2018-12-12T03:30:02.928Z,312.68
2018-12-12T03:31:02.871Z,312.95
2018-12-12T03:32:02.867Z,312.62
2018-12-12T03:33:02.863Z,312.75
2018-12-12T03:34:02.825Z,312.60
2018-12-12T03:35:02.808Z,312.58
2018-12-12T03:36:02.812Z,312.84
2018-12-12T03:37:02.828Z,312.82
2018-12-12T03:38:02.795Z,312.38
2018-12-12T03:39:02.769Z,312.62
2018-12-12T03:40:02.790Z,311.78
2018-12-12T03:41:02.751Z,312.05
2018-12-12T03:42:02.792Z,312.46
2018-12-12T03:43:02.729Z,312.68
2018-12-12T03:44:02.737Z,312.22
2018-12-12T03:45:02.702Z,312.95
2018-12-12T03:46:02.708Z,312.09
2018-12-12T03:47:02.715Z,312.73
2018-12-12T03:48:02.688Z,312.75
2018-12-12T03:49:02.697Z,312.26
2018-12-12T03:50:02.674Z,312.77
2018-12-12T03:51:02.651Z,312.62
2018-12-12T03:52:02.643Z,312.28
2018-12-12T03:53:02.617Z,311.98
2018-12-12T03:54:02.625Z,312.44
2018-12-12T03:55:02.637Z,312.88
2018-12-12T03:56:02.607Z,312.15
2018-12-12T03:57:02.576Z,312.20
2018-12-12T03:58:02.563Z,312.35
2018-12-12T03:59:02.563Z,311.62
2018-12-12T04:00:02.593Z,312.14
2018-12-12T04:01:02.554Z,311.99
2018-12-12T04:02:02.542Z,311.90
2018-12-12T04:03:02.517Z,312.23
2018-12-12T04:04:02.508Z,312.69
2018-12-12T04:05:02.500Z,312.01
2018-12-12T04:06:02.472Z,311.98
2018-12-12T04:07:02.465Z,312.36
2018-12-12T04:08:02.457Z,312.08
2018-12-12T04:09:02.459Z,312.24
2018-12-12T04:10:02.470Z,312.39
2018-12-12T04:11:02.436Z,312.47
2018-12-12T04:12:02.408Z,312.54
2018-12-12T04:13:02.424Z,312.25
2018-12-12T04:14:02.398Z,312.35
2018-12-12T04:15:02.448Z,312.38
2018-12-12T04:16:02.365Z,312.62
2018-12-12T04:17:02.371Z,312.16
2018-12-12T04:18:02.342Z,312.34
2018-12-12T04:19:02.326Z,311.62
2018-12-12T04:20:02.325Z,312.41
2018-12-12T04:21:02.381Z,312.03
2018-12-12T04:22:02.303Z,311.47
2018-12-12T04:23:02.310Z,312.84
2018-12-12T04:24:02.289Z,312.02
2018-12-12T04:25:02.368Z,312.40
2018-12-12T04:26:02.258Z,311.60
2018-12-12T04:27:02.276Z,311.91
2018-12-12T04:28:02.237Z,311.84
2018-12-12T04:29:02.223Z,312.19
2018-12-12T04:30:02.212Z,312.47
2018-12-12T04:31:02.223Z,312.77
2018-12-12T04:32:02.302Z,312.20
2018-12-12T04:33:02.202Z,311.56
2018-12-12T04:34:02.178Z,312.09
2018-12-12T04:35:02.199Z,312.41
2018-12-12T04:36:02.156Z,312.14
2018-12-12T04:37:02.132Z,311.54
2018-12-12T04:38:02.471Z,311.60
2018-12-12T04:39:02.108Z,312.31
2018-12-12T04:40:02.106Z,312.50
2018-12-12T04:41:02.112Z,311.83
2018-12-12T04:42:02.093Z,311.98
2018-12-12T04:43:02.103Z,312.22
2018-12-12T04:44:02.075Z,312.01
2018-12-12T04:45:02.051Z,312.18
2018-12-12T04:46:02.041Z,311.45
2018-12-12T04:47:02.098Z,311.47
2018-12-12T04:48:02.043Z,311.41
2018-12-12T04:49:02.015Z,312.27
2018-12-12T04:50:02.007Z,312.18
2018-12-12T04:51:01.988Z,311.98
2018-12-12T04:52:01.976Z,312.27
2018-12-12T04:53:02.639Z,311.16
2018-12-12T04:54:01.959Z,311.80
2018-12-12T04:55:01.954Z,311.73
2018-12-12T04:56:01.950Z,311.94
2018-12-12T04:57:01.927Z,311.79
2018-12-12T04:58:01.906Z,311.33
2018-12-12T04:59:01.908Z,312.37
2018-12-12T05:00:01.922Z,311.78
2018-12-12T05:01:01.872Z,311.78
2018-12-12T05:02:01.854Z,311.88
2018-12-12T05:03:01.862Z,311.52
2018-12-12T05:04:01.866Z,311.37
2018-12-12T05:05:01.839Z,311.08
2018-12-12T05:06:01.858Z,311.05
2018-12-12T05:07:01.826Z,311.19
2018-12-12T05:08:01.803Z,311.08
2018-12-12T05:09:01.799Z,311.10
2018-12-12T05:10:01.794Z,311.70
2018-12-12T05:11:01.786Z,310.82
2018-12-12T05:12:01.748Z,311.55
2018-12-12T05:13:01.758Z,311.47
2018-12-12T05:14:01.735Z,311.09
2018-12-12T05:15:01.725Z,310.78
2018-12-12T05:16:01.737Z,312.03
2018-12-12T05:17:01.710Z,311.04
2018-12-12T05:18:01.707Z,311.66
2018-12-12T05:19:01.693Z,311.62
2018-12-12T05:20:01.695Z,311.53
2018-12-12T05:21:01.676Z,311.78
2018-12-12T05:22:01.655Z,311.24
2018-12-12T05:23:01.635Z,312.20
2018-12-12T05:24:01.639Z,311.91
2018-12-12T05:25:01.628Z,311.65
2018-12-12T05:26:01.637Z,311.51
2018-12-12T05:27:01.595Z,311.69
2018-12-12T05:28:01.586Z,311.34
2018-12-12T05:29:01.560Z,312.02
2018-12-12T05:30:01.562Z,311.84
2018-12-12T05:31:01.581Z,312.08
2018-12-12T05:32:01.573Z,312.87
2018-12-12T05:33:01.561Z,312.10
2018-12-12T05:34:01.609Z,312.02
2018-12-12T05:35:01.528Z,311.98
2018-12-12T05:36:01.522Z,311.91
2018-12-12T05:37:01.498Z,312.17
2018-12-12T05:38:01.505Z,312.17
2018-12-12T05:39:01.457Z,311.99
2018-12-12T05:40:01.453Z,311.49
2018-12-12T05:41:01.458Z,311.52
2018-12-12T05:42:01.436Z,312.48
2018-12-12T05:43:01.472Z,312.33
2018-12-12T05:44:01.413Z,311.93
2018-12-12T05:45:01.405Z,312.10
2018-12-12T05:46:02.091Z,312.28
2018-12-12T05:47:01.370Z,312.00
2018-12-12T05:48:01.376Z,312.49
2018-12-12T05:49:01.411Z,312.10
2018-12-12T05:50:01.359Z,311.86
2018-12-12T05:51:01.343Z,312.81
2018-12-12T05:52:01.327Z,312.56
2018-12-12T05:53:01.302Z,312.45
2018-12-12T05:54:01.309Z,312.42
2018-12-12T05:55:01.317Z,312.96
2018-12-12T05:56:02.535Z,312.52
2018-12-12T05:57:01.303Z,313.08
2018-12-12T05:58:01.272Z,312.68
2018-12-12T05:59:01.246Z,313.11
2018-12-12T06:00:01.282Z,312.52
2018-12-12T06:01:01.224Z,312.77
2018-12-12T06:02:01.218Z,312.77
2018-12-12T06:03:01.203Z,312.73
2018-12-12T06:04:01.195Z,313.09
2018-12-12T06:05:01.180Z,312.85
2018-12-12T06:06:01.187Z,312.56
2018-12-12T06:07:01.167Z,312.79
2018-12-12T06:08:01.145Z,313.36
2018-12-12T06:09:01.143Z,313.61
2018-12-12T06:10:01.131Z,313.68
2018-12-12T06:11:01.124Z,313.96
2018-12-12T06:12:01.156Z,314.01
2018-12-12T06:13:01.093Z,314.33
2018-12-12T06:14:01.078Z,313.98
2018-12-12T06:15:01.069Z,313.93
2018-12-12T06:16:01.048Z,313.96
2018-12-12T06:17:01.055Z,314.11
2018-12-12T06:18:01.072Z,314.15
2018-12-12T06:19:01.031Z,313.78
2018-12-12T06:20:01.014Z,314.45
2018-12-12T06:21:01.008Z,314.32
2018-12-12T06:22:01.007Z,314.04
2018-12-12T06:23:01.024Z,313.71
2018-12-12T06:24:01.003Z,313.83
2018-12-12T06:25:00.965Z,314.03
2018-12-12T06:26:00.948Z,314.74
2018-12-12T06:27:00.938Z,313.78
2018-12-12T06:28:00.922Z,314.09
2018-12-12T06:29:00.935Z,314.59
2018-12-12T06:30:00.937Z,314.37
2018-12-12T06:31:00.909Z,314.66
2018-12-12T06:32:00.887Z,314.40
2018-12-12T06:33:00.888Z,313.98
2018-12-12T06:34:00.896Z,313.97
2018-12-12T06:35:00.880Z,313.91
2018-12-12T06:36:00.862Z,313.94
2018-12-12T06:37:00.841Z,313.31
2018-12-12T06:38:00.813Z,313.79
2018-12-12T06:39:00.826Z,313.93
2018-12-12T06:40:00.831Z,314.45
2018-12-12T06:41:00.810Z,314.42
2018-12-12T06:42:00.793Z,314.51
2018-12-12T06:43:00.784Z,314.69
2018-12-12T06:44:00.762Z,313.92
2018-12-12T06:45:01.367Z,314.20
2018-12-12T06:46:00.737Z,314.00
2018-12-12T06:47:00.720Z,313.65
2018-12-12T06:48:00.711Z,314.11
2018-12-12T06:49:00.721Z,314.12
2018-12-12T06:50:00.765Z,313.85
2018-12-12T06:51:00.672Z,314.23
2018-12-12T06:52:00.671Z,314.28
2018-12-12T06:53:00.661Z,314.31
2018-12-12T06:54:00.730Z,314.79
2018-12-12T06:55:00.664Z,314.73
2018-12-12T06:56:00.638Z,314.62
2018-12-12T06:57:00.617Z,314.21
2018-12-12T06:58:00.610Z,314.77
2018-12-12T06:59:00.602Z,314.67
2018-12-12T07:00:00.664Z,314.51
2018-12-12T07:01:00.581Z,314.68
2018-12-12T07:02:00.569Z,314.53
2018-12-12T07:03:00.559Z,314.43
2018-12-12T07:04:00.587Z,314.11
2018-12-12T07:05:00.546Z,314.13
2018-12-12T07:06:00.518Z,313.88
2018-12-12T07:07:00.513Z,313.90
2018-12-12T07:08:00.510Z,314.69
2018-12-12T07:09:00.495Z,314.26
2018-12-12T07:10:00.492Z,314.74
2018-12-12T07:11:00.466Z,314.48
2018-12-12T07:12:00.464Z,313.97
2018-12-12T07:13:00.449Z,314.44
2018-12-12T07:14:00.454Z,314.57
2018-12-12T07:15:00.439Z,314.72
2018-12-12T07:16:00.414Z,314.13
2018-12-12T07:17:00.420Z,315.21
2018-12-12T07:18:00.377Z,314.44
2018-12-12T07:19:00.368Z,315.23
2018-12-12T07:20:00.375Z,314.83
2018-12-12T07:21:00.367Z,314.58
2018-12-12T07:22:00.348Z,314.13
2018-12-12T07:23:00.365Z,314.31
2018-12-12T07:24:00.326Z,314.76
2018-12-12T07:25:00.335Z,314.99
2018-12-12T07:26:00.343Z,314.50
2018-12-12T07:27:00.305Z,314.45
2018-12-12T07:28:00.290Z,314.58
2018-12-12T07:29:00.258Z,315.04
2018-12-12T07:30:00.287Z,314.73
2018-12-12T07:31:00.250Z,314.81
2018-12-12T07:32:00.241Z,315.48
2018-12-12T07:33:00.232Z,314.99
2018-12-12T07:34:01.110Z,315.03
2018-12-12T07:35:00.222Z,314.28
2018-12-12T07:36:00.195Z,314.39
2018-12-12T07:37:00.201Z,314.24
2018-12-12T07:38:00.159Z,314.34
2018-12-12T07:39:00.200Z,314.28
2018-12-12T07:40:00.179Z,314.62
2018-12-12T07:41:00.131Z,314.60
2018-12-12T07:42:00.134Z,315.02
2018-12-12T07:43:00.129Z,314.52
2018-12-12T07:44:00.103Z,314.25
2018-12-12T07:45:00.129Z,314.22
2018-12-12T07:46:00.110Z,314.64
2018-12-12T07:47:00.166Z,314.11
2018-12-12T07:48:01.561Z,314.70
2018-12-12T07:49:00.055Z,315.01
2018-12-12T07:50:00.044Z,314.38
2018-12-12T07:51:00.056Z,314.34
2018-12-12T07:52:00.031Z,314.96
2018-12-12T07:53:00.010Z,314.69
2018-12-12T07:54:00.008Z,315.08
2018-12-12T07:54:59.981Z,314.92
2018-12-12T07:56:00.003Z,314.24
2018-12-12T07:57:00.014Z,314.18
2018-12-12T07:57:59.965Z,314.76
2018-12-12T07:58:59.952Z,314.30
2018-12-12T07:59:59.935Z,314.16
2018-12-12T08:00:59.910Z,314.29
2018-12-12T08:01:59.916Z,314.65
2018-12-12T08:03:05.379Z,314.57
2018-12-12T08:04:00.953Z,314.31
2018-12-12T08:04:59.910Z,314.18
2018-12-12T08:05:59.907Z,315.28
2018-12-12T08:06:59.881Z,314.93
2018-12-12T08:07:59.879Z,314.71
2018-12-12T08:08:59.832Z,314.58
2018-12-12T08:09:59.844Z,314.28
2018-12-12T08:10:59.817Z,314.37
2018-12-12T08:11:59.810Z,314.86
2018-12-12T08:12:59.784Z,314.45
2018-12-12T08:13:59.795Z,314.37
2018-12-12T08:14:59.807Z,314.72
2018-12-12T08:15:59.776Z,314.32
2018-12-12T08:16:59.782Z,314.94
2018-12-12T08:17:59.739Z,314.55
2018-12-12T08:18:59.749Z,314.63
2018-12-12T08:19:59.721Z,314.39
2018-12-12T08:20:59.728Z,314.49
2018-12-12T08:21:59.718Z,314.81
2018-12-12T08:22:59.686Z,315.51
2018-12-12T08:23:59.668Z,315.01
2018-12-12T08:24:59.709Z,314.39
2018-12-12T08:25:59.679Z,314.90
2018-12-12T08:26:59.655Z,314.87
2018-12-12T08:27:59.627Z,315.33
2018-12-12T08:28:59.622Z,314.68
2018-12-12T08:29:59.609Z,314.38
2018-12-12T08:30:59.637Z,314.52
2018-12-12T08:31:59.583Z,315.02
2018-12-12T08:32:59.566Z,314.45
2018-12-12T08:33:59.548Z,314.28
2018-12-12T08:34:59.547Z,314.48
2018-12-12T08:35:59.529Z,314.59
2018-12-12T08:36:59.571Z,314.53
2018-12-12T08:37:59.519Z,315.02
2018-12-12T08:38:59.516Z,315.02
2018-12-12T08:39:59.525Z,314.30
2018-12-12T08:40:59.485Z,314.49
2018-12-12T08:41:59.474Z,315.09
2018-12-12T08:42:59.485Z,315.01
2018-12-12T08:43:59.461Z,314.43
2018-12-12T08:44:59.454Z,314.22
2018-12-12T08:45:59.443Z,314.54
2018-12-12T08:46:59.430Z,314.41
2018-12-12T08:47:59.429Z,314.43
2018-12-12T08:48:59.423Z,314.22
2018-12-12T08:49:59.397Z,314.34
2018-12-12T08:50:59.399Z,314.25
2018-12-12T08:51:59.365Z,314.60
2018-12-12T08:52:59.343Z,315.34
2018-12-12T08:53:59.364Z,315.31
2018-12-12T08:54:59.353Z,314.40
2018-12-12T08:55:59.328Z,314.11
2018-12-12T08:56:59.306Z,314.83
2018-12-12T08:57:59.341Z,314.48
2018-12-12T08:58:59.296Z,313.99
2018-12-12T08:59:59.292Z,314.73
2018-12-12T09:00:59.273Z,314.44
2018-12-12T09:01:59.274Z,315.28
2018-12-12T09:02:59.243Z,314.60
2018-12-12T09:03:59.254Z,314.58
2018-12-12T09:04:59.260Z,314.39
2018-12-12T09:05:59.200Z,314.52
2018-12-12T09:06:59.224Z,314.51
2018-12-12T09:07:59.198Z,315.05
2018-12-12T09:08:59.219Z,314.48
2018-12-12T09:09:59.179Z,314.60
2018-12-12T09:10:59.165Z,314.13
2018-12-12T09:11:59.171Z,314.00
2018-12-12T09:12:59.140Z,314.36
2018-12-12T09:13:59.136Z,314.34
2018-12-12T09:14:59.159Z,314.67
2018-12-12T09:15:59.107Z,314.17
2018-12-12T09:16:59.112Z,314.45
2018-12-12T09:17:59.095Z,314.83
2018-12-12T09:18:59.611Z,314.36
2018-12-12T09:19:59.085Z,315.00
2018-12-12T09:20:59.044Z,313.91
2018-12-12T09:21:59.051Z,314.77
2018-12-12T09:22:59.035Z,315.13
2018-12-12T09:23:59.013Z,314.11
2018-12-12T09:24:59.054Z,314.49
2018-12-12T09:25:59.629Z,314.86
2018-12-12T09:26:58.976Z,314.17
2018-12-12T09:27:58.963Z,314.19
2018-12-12T09:28:58.974Z,313.22
2018-12-12T09:29:58.980Z,313.99
2018-12-12T09:30:58.943Z,313.91
2018-12-12T09:31:58.928Z,313.94
2018-12-12T09:32:58.919Z,314.77
2018-12-12T09:33:58.909Z,313.78
2018-12-12T09:34:58.920Z,313.86
2018-12-12T09:35:58.886Z,314.58
2018-12-12T09:36:58.877Z,314.73
2018-12-12T09:37:58.883Z,314.47
2018-12-12T09:38:58.844Z,314.24
2018-12-12T09:39:58.833Z,313.72
2018-12-12T09:40:58.844Z,313.96
2018-12-12T09:41:58.822Z,313.59
2018-12-12T09:42:58.858Z,313.28
2018-12-12T09:43:58.795Z,313.19
2018-12-12T09:44:58.778Z,313.87
2018-12-12T09:45:58.842Z,314.44
2018-12-12T09:46:58.785Z,313.33
2018-12-12T09:47:58.763Z,312.71
2018-12-12T09:48:58.759Z,313.70
2018-12-12T09:49:58.771Z,314.00
2018-12-12T09:50:58.718Z,314.17
2018-12-12T09:51:58.713Z,314.18
2018-12-12T09:52:58.724Z,314.65
2018-12-12T09:53:58.743Z,315.15
2018-12-12T09:54:58.707Z,314.23
2018-12-12T09:55:58.666Z,314.18
2018-12-12T09:56:58.650Z,314.15
2018-12-12T09:57:58.648Z,314.13
2018-12-12T09:58:58.625Z,314.27
2018-12-12T09:59:58.658Z,314.09
2018-12-12T10:00:58.608Z,314.80
2018-12-12T10:01:58.611Z,314.42
2018-12-12T10:02:58.585Z,314.32
2018-12-12T10:03:58.592Z,314.26
2018-12-12T10:04:58.567Z,314.35
2018-12-12T10:05:58.608Z,314.18
2018-12-12T10:06:58.546Z,314.02
2018-12-12T10:07:58.555Z,313.74
2018-12-12T10:08:58.523Z,314.18
2018-12-12T10:09:58.530Z,313.73
2018-12-12T10:10:58.529Z,313.57
2018-12-12T10:11:58.509Z,313.57
2018-12-12T10:12:58.485Z,313.67
2018-12-12T10:13:58.483Z,313.68
2018-12-12T10:14:58.461Z,313.94
2018-12-12T10:15:58.470Z,314.60
2018-12-12T10:16:58.467Z,313.63
2018-12-12T10:17:58.420Z,313.69
2018-12-12T10:18:58.420Z,312.70
2018-12-12T10:19:58.404Z,313.98
2018-12-12T10:20:58.504Z,314.32
2018-12-12T10:21:58.394Z,314.86
2018-12-12T10:22:58.379Z,314.48
2018-12-12T10:23:58.390Z,314.19
2018-12-12T10:24:58.364Z,314.12
2018-12-12T10:25:58.340Z,313.41
2018-12-12T10:26:58.349Z,313.91
2018-12-12T10:27:58.324Z,313.15
2018-12-12T10:28:58.314Z,314.43
2018-12-12T10:29:58.323Z,314.19
2018-12-12T10:30:58.273Z,314.50
2018-12-12T10:31:58.267Z,314.21
2018-12-12T10:32:58.270Z,314.71
2018-12-12T10:33:58.252Z,313.01
2018-12-12T10:34:58.245Z,312.48
2018-12-12T10:35:58.260Z,314.16
2018-12-12T10:36:58.223Z,314.38
2018-12-12T10:37:58.213Z,313.31
2018-12-12T10:38:58.251Z,313.52
2018-12-12T10:39:58.209Z,313.79
2018-12-12T10:40:58.181Z,312.81
2018-12-12T10:41:58.160Z,312.85
2018-12-12T10:42:58.239Z,312.84
2018-12-12T10:43:58.140Z,313.40
2018-12-12T10:44:58.166Z,313.17
2018-12-12T10:45:58.153Z,312.70
2018-12-12T10:46:58.131Z,313.34
2018-12-12T10:47:58.105Z,313.04
2018-12-12T10:48:58.084Z,312.45
2018-12-12T10:49:58.069Z,313.45
2018-12-12T10:50:58.095Z,313.28
2018-12-12T10:51:58.056Z,313.53
2018-12-12T10:52:58.040Z,313.30
2018-12-12T10:53:58.021Z,313.31
2018-12-12T10:54:58.027Z,313.77
2018-12-12T10:55:58.031Z,313.64
2018-12-12T10:56:58.033Z,313.51
2018-12-12T10:57:58.010Z,313.41
2018-12-12T10:58:57.990Z,313.84
2018-12-12T10:59:57.975Z,313.54
2018-12-12T11:00:57.975Z,313.55
2018-12-12T11:01:57.959Z,313.43
2018-12-12T11:02:57.970Z,313.04
2018-12-12T11:03:57.915Z,312.30
2018-12-12T11:04:57.919Z,312.83
2018-12-12T11:05:57.913Z,312.48
2018-12-12T11:06:57.881Z,311.89
2018-12-12T11:07:57.888Z,312.70
2018-12-12T11:08:57.901Z,311.82
2018-12-12T11:09:57.871Z,312.56
2018-12-12T11:10:57.853Z,312.25
2018-12-12T11:11:57.835Z,312.14
2018-12-12T11:12:57.858Z,312.44
2018-12-12T11:13:57.814Z,311.48
2018-12-12T11:14:57.810Z,312.54
2018-12-12T11:15:57.783Z,312.94
2018-12-12T11:16:57.781Z,312.75
2018-12-12T11:17:57.767Z,313.35
2018-12-12T11:18:57.799Z,312.71
2018-12-12T11:19:57.764Z,313.45
2018-12-12T11:20:57.749Z,314.14
2018-12-12T11:21:57.730Z,312.60
2018-12-12T11:22:57.722Z,312.74
2018-12-12T11:23:57.718Z,313.03
2018-12-12T11:24:57.728Z,313.45
2018-12-12T11:25:57.703Z,312.64
2018-12-12T11:26:57.662Z,313.58
2018-12-12T11:27:57.660Z,312.50
2018-12-12T11:28:57.650Z,312.57
2018-12-12T11:29:57.639Z,313.33
2018-12-12T11:30:57.644Z,313.15
2018-12-12T11:31:57.640Z,312.02
2018-12-12T11:32:57.606Z,312.84
2018-12-12T11:33:57.595Z,312.05
2018-12-12T11:34:57.582Z,313.41
2018-12-12T11:35:57.599Z,312.67
2018-12-12T11:36:57.570Z,312.46
2018-12-12T11:37:57.554Z,311.78
2018-12-12T11:38:57.552Z,311.94
2018-12-12T11:39:57.522Z,312.62
2018-12-12T11:40:57.527Z,312.47
2018-12-12T11:41:57.547Z,312.79
2018-12-12T11:42:57.503Z,313.25
2018-12-12T11:43:57.488Z,312.77
2018-12-12T11:44:57.465Z,312.67
2018-12-12T11:45:57.456Z,312.67
2018-12-12T11:46:58.057Z,312.61
2018-12-12T11:47:57.519Z,312.83
2018-12-12T11:48:57.435Z,313.09
2018-12-12T11:49:57.425Z,312.53
2018-12-12T11:50:57.409Z,312.39
2018-12-12T11:51:57.395Z,311.58
2018-12-12T11:52:57.391Z,311.64
2018-12-12T11:53:57.396Z,312.15
2018-12-12T11:54:57.362Z,312.79
2018-12-12T11:55:57.358Z,312.20
2018-12-12T11:56:57.375Z,312.43
2018-12-12T11:57:57.336Z,312.81
2018-12-12T11:58:57.360Z,311.70
2018-12-12T11:59:57.319Z,311.78
2018-12-12T12:00:57.296Z,311.16
2018-12-12T12:01:57.301Z,311.85
2018-12-12T12:02:57.286Z,312.45
2018-12-12T12:03:57.300Z,313.59
2018-12-12T12:04:57.290Z,311.88
2018-12-12T12:05:57.258Z,312.07
2018-12-12T12:06:57.238Z,312.55
2018-12-12T12:07:57.228Z,312.40
2018-12-12T12:08:57.216Z,312.03
2018-12-12T12:09:57.216Z,311.89
2018-12-12T12:10:57.201Z,312.08
2018-12-12T12:11:57.191Z,312.30
2018-12-12T12:12:57.172Z,312.59
2018-12-12T12:13:57.153Z,311.60
2018-12-12T12:14:57.142Z,310.95
2018-12-12T12:15:57.153Z,312.57
2018-12-12T12:16:57.137Z,311.79
2018-12-12T12:17:57.128Z,312.15
2018-12-12T12:18:57.118Z,312.69
2018-12-12T12:19:57.090Z,311.98
2018-12-12T12:20:57.098Z,312.19
2018-12-12T12:21:57.087Z,311.66
2018-12-12T12:22:57.065Z,311.56
2018-12-12T12:23:57.042Z,312.17
2018-12-12T12:24:57.055Z,313.02
2018-12-12T12:25:57.056Z,311.44
2018-12-12T12:26:57.014Z,312.85
2018-12-12T12:27:57.016Z,312.09